IN-0031 weather

Vairengte Helipad
Mizoram, India

Public forecast

Using degrees Celsius for public forecast. Weather courtesy of forecast.io.

METAR (pilot weather report)

Report is more than 6 hours old.

Closest report is Lengpui Airport, 39.0 nm (72.3 km) S. Retrieved 2019/08/23 09:00 UTC (18 hours ago):

VELP 230900Z 00000KT 3000 HZ FEW010 SCT018 FEW025CB BKN100 30/25 Q1005 NOSIG

TAF (pilot weather forecast)

Forecast is more than 12 hours old.

Closest forecast is Silchar Airport, 28.8 nm (53.3 km) NNE. Retrieved 2019/08/23 12:30 UTC (15 hours ago):

TAF VEKU 230930Z 2312/2324 24005KT 6000 SCT020 BKN090 BECMG (2316/2320) 09005KT 3000 RABR SCT008 BKN030 BKN090